Impacts TAF Board
For situational awareness. Not to be used for flight planning purposes.
IDs:

KCLT - Charlotte/Douglas In, NC, US

Issued at 1137 UTC 13 Dec 2018
Updated at 1259 UTC 13 Dec 2018
Potential Impact None Slight Moderate High
Time<<14/13Z 14/14Z 14/15Z 14/16Z 14/17Z 14/18Z 14/19Z 14/20Z 14/21Z 14/22Z 14/23Z 15/00Z 15/01Z
Type PRVL PRVL PRVL PRVL PRVL
VIS 5 2 2 2 2
CIG 14 8 8 8 8
Cover OVC OVC OVC OVC OVC
FltCat MVFR IFR IFR IFR IFR
WX SHRA BR SHRA BR SHRA BR SHRA BR SHRA BR
WDir 40 50 50 50 50
WSpd 9 8 8 8 8
WGst -- -- -- -- --
Raw TAF
KCLT 131137Z 1312/1418 17003KT P6SM BKN160 OVC250
  FM140100 05004KT P6SM SCT035 OVC100
  FM140600 04007KT P6SM OVC035
  FM140900 04009KT P6SM SHRA OVC027
  FM141200 04009KT 5SM SHRA BR OVC014
  FM141400 05008KT 2SM SHRA BR OVC008


METAR Board
Radar Display
Forecast Discussion
For situational awareness. Not to be used for flight planning purposes.